Time;durP1;ratioP1;P1;durP2;ratioP2;P2;SDS_P1;SDS_P2;PMS_P1;PMS_P2;Temp;Humidity;BMP_temperature;BMP_pressure;BME280_temperature;BME280_humidity;BME280_pressure;Samples;Min_cycle;Max_cycle;Signal;HPM_P1;HPM_P2
2022/02/15 00:02:10;;;;;;;;;;;7.90;96.60;;;;;;6193843;23;20314;-87
2022/02/15 00:04:36;;;;;;;;;;;7.80;96.70;;;;;;6193107;23;19927;-88
2022/02/15 00:07:09;;;;;;;;;;;7.80;96.70;;;;;;6193123;23;20314;-87
2022/02/15 00:09:42;;;;;;;;;;;7.70;96.80;;;;;;6167881;23;20043;-89
2022/02/15 00:12:19;;;;;;;;;;;7.70;96.90;;;;;;6192577;23;19904;-89
2022/02/15 00:14:55;;;;;;;;;;;7.80;96.90;;;;;;6167621;23;19940;-86
2022/02/15 00:18:00;;;;;;;;;;;7.70;97.00;;;;;;6196750;23;20219;-87
2022/02/15 00:20:44;;;;;;;;;;;7.70;97.00;;;;;;6194133;23;19931;-88
2022/02/15 00:26:26;;;;;;;;;;;7.70;97.20;;;;;;6184496;23;19911;-87
2022/02/15 00:29:07;;;;;;;;;;;7.70;97.30;;;;;;6214132;23;19923;-88
2022/02/15 00:31:36;;;;;;;;;;;7.70;97.40;;;;;;6217809;23;19986;-88
2022/02/15 00:34:04;;;;;;;;;;;7.70;97.40;;;;;;6216950;23;19915;-87
2022/02/15 00:36:40;;;;;;;;;;;7.70;97.40;;;;;;6185502;23;19908;-89
2022/02/15 00:39:05;;;;;;;;;;;7.80;97.40;;;;;;6192559;23;19976;-88
2022/02/15 00:41:40;;;;;;;;;;;7.80;97.40;;;;;;6191353;23;20139;-88
2022/02/15 00:44:09;;;;;;;;;;;7.80;97.50;;;;;;6192154;23;19904;-89
2022/02/15 00:46:46;;;;;;;;;;;7.80;97.50;;;;;;6167240;23;20378;-89
2022/02/15 00:49:22;;;;;;;;;;;;;;;;;;;;;
2022/02/15 00:51:48;;;;;;;;;;;7.80;97.70;;;;;;6219543;23;20350;-89
2022/02/15 00:54:23;;;;;;;;;;;7.80;97.60;;;;;;6192041;23;19904;-88
2022/02/15 00:57:10;;;;;;;;;;;7.90;97.70;;;;;;6193822;23;19904;-88
2022/02/15 00:59:58;;;;;;;;;;;7.90;97.70;;;;;;6194317;23;19928;-88
2022/02/15 01:02:27;;;;;;;;;;;7.80;97.60;;;;;;6194110;23;19911;-86
2022/02/15 01:04:58;;;;;;;;;;;7.90;97.70;;;;;;6194920;23;19939;-88
2022/02/15 01:07:31;;;;;;;;;;;7.90;97.70;;;;;;6194608;23;19912;-90
2022/02/15 01:10:26;;;;;;;;;;;7.80;97.80;;;;;;6194697;23;19908;-88
2022/02/15 01:13:20;;;;;;;;;;;7.80;97.80;;;;;;6194550;23;19912;-87
2022/02/15 01:15:53;;;;;;;;;;;7.80;97.90;;;;;;6194772;23;19904;-87
2022/02/15 01:18:20;;;;;;;;;;;7.80;97.90;;;;;;6221011;23;19927;-88
2022/02/15 01:21:18;;;;;;;;;;;;;;;;;;;;;
2022/02/15 01:23:44;;;;;;;;;;;7.80;98.00;;;;;;6222237;23;19939;-87
2022/02/15 01:26:10;;;;;;;;;;;7.80;98.00;;;;;;6197005;23;19904;-89
2022/02/15 01:28:39;;;;;;;;;;;7.80;98.00;;;;;;6199473;23;19922;-87
2022/02/15 01:31:15;;;;;;;;;;;;;;;;;;;;;
2022/02/15 01:33:54;;;;;;;;;;;;;;;;;;;;;
2022/02/15 01:36:25;;;;;;;;;;;7.80;98.10;;;;;;6232728;23;20014;-86
2022/02/15 01:38:55;;;;;;;;;;;7.80;98.10;;;;;;6180059;23;19960;-87
2022/02/15 01:41:28;;;;;;;;;;;7.80;98.10;;;;;;6174897;23;19908;-89
2022/02/15 01:44:04;;;;;;;;;;;;;;;;;;;;;
2022/02/15 01:46:38;;;;;;;;;;;7.80;98.20;;;;;;6221113;23;20281;-88
2022/02/15 01:49:14;;;;;;;;;;;7.90;98.20;;;;;;6197757;23;19955;-87
2022/02/15 01:51:55;;;;;;;;;;;7.90;98.20;;;;;;6170295;23;20314;-87
2022/02/15 01:54:29;;;;;;;;;;;7.90;98.20;;;;;;6195087;23;19904;-88
2022/02/15 01:56:57;;;;;;;;;;;7.90;98.20;;;;;;6195876;23;19903;-87
2022/02/15 01:59:26;;;;;;;;;;;7.90;98.20;;;;;;6210117;23;19908;-88
2022/02/15 02:01:57;;;;;;;;;;;7.90;98.20;;;;;;6192497;23;19892;-87
2022/02/15 02:07:33;;;;;;;;;;;7.80;98.30;;;;;;6237235;23;19895;-87
2022/02/15 02:10:01;;;;;;;;;;;7.80;98.30;;;;;;6151367;23;19912;-88
2022/02/15 02:12:35;;;;;;;;;;;7.80;98.30;;;;;;6220411;23;19904;-88
2022/02/15 02:15:05;;;;;;;;;;;7.80;98.30;;;;;;6194599;23;19911;-87
2022/02/15 02:17:54;;;;;;;;;;;7.80;98.30;;;;;;6193154;23;19904;-88
2022/02/15 02:20:23;;;;;;;;;;;7.80;98.40;;;;;;6175380;23;19910;-89
2022/02/15 02:22:58;;;;;;;;;;;7.80;98.40;;;;;;6193101;23;19904;-89
2022/02/15 02:25:29;;;;;;;;;;;7.80;98.40;;;;;;6194138;23;19904;-88
2022/02/15 02:27:57;;;;;;;;;;;7.80;98.50;;;;;;6219891;23;19927;-87
2022/02/15 02:30:28;;;;;;;;;;;7.80;98.50;;;;;;6192963;23;19923;-87
2022/02/15 02:32:59;;;;;;;;;;;7.80;98.50;;;;;;6168685;23;20234;-88
2022/02/15 02:35:54;;;;;;;;;;;7.80;98.50;;;;;;6192655;23;19904;-88
2022/02/15 02:38:20;;;;;;;;;;;7.80;98.50;;;;;;6146116;23;19904;-89
2022/02/15 02:40:46;;;;;;;;;;;7.70;98.50;;;;;;6192942;23;20269;-87
2022/02/15 02:43:18;;;;;;;;;;;7.70;98.60;;;;;;6193631;23;19908;-88
2022/02/15 02:45:43;;;;;;;;;;;7.70;98.60;;;;;;6193528;23;19903;-88
2022/02/15 02:48:22;;;;;;;;;;;;;;;;;;;;;
2022/02/15 02:50:51;;;;;;;;;;;7.80;98.60;;;;;;6221039;23;20293;-87
2022/02/15 02:53:17;;;;;;;;;;;7.70;98.60;;;;;;6192480;23;20306;-88
2022/02/15 02:55:48;;;;;;;;;;;7.70;98.60;;;;;;6167396;23;19950;-88
2022/02/15 02:58:23;;;;;;;;;;;7.80;98.70;;;;;;6193100;23;20302;-88
2022/02/15 03:00:49;;;;;;;;;;;7.70;98.70;;;;;;6192795;23;19911;-88
2022/02/15 03:03:25;;;;;;;;;;;7.70;98.70;;;;;;6192799;23;19904;-89
2022/02/15 03:05:51;;;;;;;;;;;7.70;98.70;;;;;;6192862;23;19951;-88
2022/02/15 03:08:18;;;;;;;;;;;7.70;98.70;;;;;;6193236;23;19904;-87
2022/02/15 03:10:49;;;;;;;;;;;7.70;98.70;;;;;;6192722;23;19912;-87
2022/02/15 03:13:25;;;;;;;;;;;7.70;98.70;;;;;;6220012;23;19904;-89
2022/02/15 03:15:50;;;;;;;;;;;7.70;98.70;;;;;;6193759;23;19954;-89
2022/02/15 03:18:16;;;;;;;;;;;7.70;98.80;;;;;;6193237;23;19935;-87
2022/02/15 03:20:44;;;;;;;;;;;7.60;98.80;;;;;;6193371;23;19915;-89
2022/02/15 03:23:12;;;;;;;;;;;7.60;98.80;;;;;;6168920;23;20306;-87
2022/02/15 03:25:38;;;;;;;;;;;7.70;98.90;;;;;;6195414;23;19904;-88
2022/02/15 03:28:04;;;;;;;;;;;7.70;98.90;;;;;;6196171;23;19911;-89
2022/02/15 03:30:38;;;;;;;;;;;7.70;98.90;;;;;;6194608;23;20319;-87
2022/02/15 03:33:03;;;;;;;;;;;7.70;98.80;;;;;;6207806;23;19938;-88
2022/02/15 03:35:32;;;;;;;;;;;7.70;98.80;;;;;;6218074;23;19896;-88
2022/02/15 03:38:00;;;;;;;;;;;7.70;98.80;;;;;;6218633;23;19899;-86
2022/02/15 03:43:05;;;;;;;;;;;7.70;98.80;;;;;;6217110;23;19893;-88
2022/02/15 03:43:20;;;;;;;;;;;7.70;98.80;;;;;;6199847;23;20376;-89
2022/02/15 03:46:05;;;;;;;;;;;7.70;98.90;;;;;;6219933;23;19962;-89
2022/02/15 03:48:33;;;;;;;;;;;7.70;98.90;;;;;;6193132;23;19911;-88
2022/02/15 03:51:09;;;;;;;;;;;7.70;98.90;;;;;;6192474;23;19911;-88
2022/02/15 03:53:37;;;;;;;;;;;7.70;99.00;;;;;;6192552;23;19978;-88
2022/02/15 03:56:06;;;;;;;;;;;7.70;99.00;;;;;;6192831;23;19904;-88
2022/02/15 03:58:39;;;;;;;;;;;7.70;99.00;;;;;;6192845;23;19936;-88
2022/02/15 04:01:07;;;;;;;;;;;7.70;99.00;;;;;;6192739;23;19904;-87
2022/02/15 04:03:45;;;;;;;;;;;7.70;98.90;;;;;;6191938;23;19904;-88
2022/02/15 04:06:13;;;;;;;;;;;7.70;98.90;;;;;;6170001;23;19908;-88
2022/02/15 04:08:39;;;;;;;;;;;7.70;98.80;;;;;;6192633;23;19904;-88
2022/02/15 04:11:08;;;;;;;;;;;7.70;98.80;;;;;;6166842;23;20329;-88
2022/02/15 04:13:35;;;;;;;;;;;7.70;98.80;;;;;;6191829;23;19939;-87
2022/02/15 04:16:10;;;;;;;;;;;7.70;98.80;;;;;;6218858;23;19926;-88
2022/02/15 04:18:43;;;;;;;;;;;7.70;98.80;;;;;;6218770;23;19927;-89
2022/02/15 04:21:20;;;;;;;;;;;7.70;98.80;;;;;;6219235;23;19904;-89
2022/02/15 04:23:48;;;;;;;;;;;7.70;98.90;;;;;;6191999;23;19908;-88
2022/02/15 04:26:24;;;;;;;;;;;;;;;;;;;;;
2022/02/15 04:29:20;;;;;;;;;;;;;;;;;;;;;
2022/02/15 04:32:00;;;;;;;;;;;7.70;98.90;;;;;;6219556;23;19983;-90
2022/02/15 04:34:39;;;;;;;;;;;7.70;99.00;;;;;;6194326;23;20381;-88
2022/02/15 04:37:04;;;;;;;;;;;7.70;99.20;;;;;;6198382;23;19920;-87
2022/02/15 04:39:46;;;;;;;;;;;7.70;98.90;;;;;;6200353;23;19911;-84
2022/02/15 04:42:15;;;;;;;;;;;7.70;99.00;;;;;;6200167;23;19987;-87
2022/02/15 04:44:43;;;;;;;;;;;7.70;98.90;;;;;;6174489;23;19946;-86
2022/02/15 04:47:24;;;;;;;;;;;;;;;;;;;;;
2022/02/15 04:49:55;;;;;;;;;;;7.70;99.00;;;;;;6220462;23;19947;-88
2022/02/15 04:52:49;;;;;;;;;;;7.70;99.00;;;;;;6195369;23;19912;-88
2022/02/15 04:55:17;;;;;;;;;;;7.70;99.00;;;;;;6219428;23;20314;-88
2022/02/15 04:57:48;;;;;;;;;;;7.70;99.00;;;;;;6194237;23;19904;-89
2022/02/15 05:00:16;;;;;;;;;;;7.70;99.00;;;;;;6194709;23;19904;-88
2022/02/15 05:02:42;;;;;;;;;;;7.70;99.00;;;;;;6195493;23;19908;-88
2022/02/15 05:05:10;;;;;;;;;;;7.70;99.00;;;;;;6208480;23;19892;-89
2022/02/15 05:07:44;;;;;;;;;;;7.70;99.00;;;;;;6219920;23;19908;-88
2022/02/15 05:10:12;;;;;;;;;;;7.70;99.00;;;;;;6219167;23;19923;-89
2022/02/15 05:12:38;;;;;;;;;;;7.70;99.00;;;;;;6216428;23;19888;-88
2022/02/15 05:15:09;;;;;;;;;;;7.70;99.00;;;;;;6201583;23;19962;-88
2022/02/15 05:17:49;;;;;;;;;;;7.70;99.00;;;;;;6194736;23;19908;-88
2022/02/15 05:20:37;;;;;;;;;;;;;;;;;;;;;
2022/02/15 05:23:23;;;;;;;;;;;7.70;99.00;;;;;;6220871;23;19979;-88
2022/02/15 05:25:49;;;;;;;;;;;7.70;99.00;;;;;;6221382;23;20318;-89
2022/02/15 05:28:17;;;;;;;;;;;7.80;99.10;;;;;;6193979;23;19910;-88
2022/02/15 05:31:02;;;;;;;;;;;7.80;99.10;;;;;;6168982;23;19924;-87
2022/02/15 05:33:27;;;;;;;;;;;7.80;99.10;;;;;;6197695;23;19919;-89
2022/02/15 05:35:58;;;;;;;;;;;7.80;99.10;;;;;;6196496;23;19908;-88
2022/02/15 05:38:44;;;;;;;;;;;7.80;99.10;;;;;;6195086;23;19904;-89
2022/02/15 05:41:41;;;;;;;;;;;7.80;99.10;;;;;;6196169;23;19904;-88
2022/02/15 05:44:06;;;;;;;;;;;7.70;99.10;;;;;;6198038;23;19980;-88
2022/02/15 05:46:58;;;;;;;;;;;7.70;99.20;;;;;;6198288;23;19908;-89
2022/02/15 05:49:27;;;;;;;;;;;7.70;99.20;;;;;;6187997;23;19919;-88
2022/02/15 05:52:04;;;;;;;;;;;7.70;99.30;;;;;;6198599;23;19908;-87
2022/02/15 05:55:02;;;;;;;;;;;;;;;;;;;;;
2022/02/15 06:00:56;;;;;;;;;;;7.80;99.30;;;;;;6135612;23;19905;-90
2022/02/15 06:06:29;;;;;;;;;;;7.70;99.30;;;;;;6217611;23;19975;-91
2022/02/15 06:09:21;;;;;;;;;;;7.70;99.40;;;;;;6191913;23;19958;-91
2022/02/15 06:18:05;;;;;;;;;;;7.80;99.50;;;;;;6204459;23;19944;-90
2022/02/15 06:24:00;;;;;;;;;;;;;;;;;;;;;
2022/02/15 06:29:46;;;;;;;;;;;7.80;99.50;;;;;;6098919;23;19924;-90
2022/02/15 07:24:09;;;;;;;;;;;;;;;;;;;;;
2022/02/15 08:26:39;;;;;;;;;;;;;;;;;;;;;
2022/02/15 10:29:58;;;;;;;;;;;;;;;;;;;;;
2022/02/15 11:41:45;;;;;;;;;;;;;;;;;;;;;
2022/02/15 11:51:22;;;;;;;;;;;;;;;;;;;;;
2022/02/15 12:04:40;;;;;;;;;;;;;;;;;;;;;
2022/02/15 12:10:38;;;;;;;;;;;;;;;;;;;;;
2022/02/15 12:23:07;;;;;;;;;;;;;;;;;;;;;
2022/02/15 13:33:56;;;;;;;;;;;;;;;;;;;;;
2022/02/15 13:53:13;;;;;;;;;;;;;;;;;;;;;
2022/02/15 16:23:25;;;;;;;;;;;9.90;91.30;;;;;;5928200;24;20365;-90
2022/02/15 16:32:02;;;;;;;;;;;9.80;91.70;;;;;;5962397;24;19970;-90
2022/02/15 16:38:20;;;;;;;;;;;;;;;;;;;;;
2022/02/15 16:44:20;;;;;;;;;;;;;;;;;;;;;
2022/02/15 16:47:21;;;;;;;;;;;;;;;;;;;;;
2022/02/15 16:53:07;;;;;;;;;;;9.70;92.40;;;;;;6034001;23;19995;-88
2022/02/15 16:55:40;;;;;;;;;;;9.60;92.80;;;;;;6017745;23;19906;-88
2022/02/15 16:58:24;;;;;;;;;;;9.60;92.90;;;;;;5994222;23;19910;-88
2022/02/15 17:01:13;;;;;;;;;;;9.60;93.10;;;;;;6125803;23;19911;-87
2022/02/15 17:03:46;;;;;;;;;;;9.60;93.40;;;;;;6161540;23;19908;-88
2022/02/15 17:06:34;;;;;;;;;;;;;;;;;;;;;
2022/02/15 17:12:16;;;;;;;;;;;9.50;93.90;;;;;;6170745;23;20319;-90
2022/02/15 17:14:55;;;;;;;;;;;9.50;94.10;;;;;;6165525;23;19911;-90
2022/02/15 17:17:26;;;;;;;;;;;9.40;94.40;;;;;;6192185;23;19908;-89
2022/02/15 17:20:02;;;;;;;;;;;9.50;94.50;;;;;;6166552;23;19904;-89
2022/02/15 17:22:27;;;;;;;;;;;9.40;94.50;;;;;;6146308;23;19956;-91
2022/02/15 17:25:24;;;;;;;;;;;9.40;94.60;;;;;;6187792;23;19908;-90
2022/02/15 17:28:12;;;;;;;;;;;;;;;;;;;;;
2022/02/15 17:30:38;;;;;;;;;;;9.40;95.10;;;;;;6211318;23;19919;-88
2022/02/15 17:36:15;;;;;;;;;;;9.40;95.30;;;;;;6192275;23;19951;-89
2022/02/15 17:38:47;;;;;;;;;;;9.40;95.50;;;;;;6180794;23;19916;-89
2022/02/15 17:41:35;;;;;;;;;;;9.30;95.60;;;;;;6189373;23;19991;-90
2022/02/15 17:44:22;;;;;;;;;;;9.30;96.20;;;;;;6189147;23;19944;-90
2022/02/15 17:47:07;;;;;;;;;;;9.30;96.00;;;;;;6213408;23;19943;-89
2022/02/15 17:50:13;;;;;;;;;;;9.30;96.30;;;;;;6197591;23;19998;-89
2022/02/15 17:53:06;;;;;;;;;;;9.20;96.40;;;;;;6198152;23;19991;-91
2022/02/15 17:55:34;;;;;;;;;;;9.30;96.70;;;;;;6219316;23;19911;-89
2022/02/15 18:00:54;;;;;;;;;;;9.20;97.10;;;;;;6197562;23;19904;-91
2022/02/15 18:03:25;;;;;;;;;;;9.10;97.30;;;;;;6194055;23;19908;-90
2022/02/15 18:06:09;;;;;;;;;;;9.10;97.60;;;;;;6194485;23;19912;-90
2022/02/15 18:08:45;;;;;;;;;;;9.10;97.90;;;;;;6195806;23;20226;-90
2022/02/15 18:11:20;;;;;;;;;;;9.10;98.10;;;;;;6195999;23;19923;-89
2022/02/15 18:13:53;;;;;;;;;;;9.00;98.30;;;;;;6194329;23;20230;-89
2022/02/15 18:16:23;;;;;;;;;;;9.10;98.50;;;;;;6168161;23;19911;-88
2022/02/15 18:19:12;;;;;;;;;;;9.00;98.80;;;;;;6169386;23;19955;-89
2022/02/15 19:15:28;;;;;;;;;;;8.90;99.90;;;;;;5820999;24;19984;-91
2022/02/15 19:18:22;;;;;;;;;;;8.90;99.90;;;;;;5981162;24;19895;-89
2022/02/15 19:27:00;;;;;;;;;;;8.90;99.90;;;;;;6132333;23;19940;-90
2022/02/15 19:29:43;;;;;;;;;;;8.90;99.90;;;;;;6177069;23;19908;-92
2022/02/15 19:32:14;;;;;;;;;;;8.90;99.90;;;;;;6173821;23;19919;-90
2022/02/15 19:34:58;;;;;;;;;;;8.90;99.90;;;;;;6174642;23;19915;-90
2022/02/15 19:37:27;;;;;;;;;;;8.90;99.90;;;;;;6198625;23;19904;-91
2022/02/15 19:43:38;;;;;;;;;;;;;;;;;;;;;
2022/02/15 19:46:34;;;;;;;;;;;8.90;99.90;;;;;;6223847;23;19958;-92
2022/02/15 19:49:04;;;;;;;;;;;8.80;99.90;;;;;;6176021;23;19920;-92
2022/02/15 19:51:47;;;;;;;;;;;;;;;;;;;;;
2022/02/15 19:54:23;;;;;;;;;;;;;;;;;;;;;
2022/02/15 20:09:12;;;;;;;;;;;8.80;99.90;;;;;;6107871;23;19905;-91
2022/02/15 20:11:43;;;;;;;;;;;8.80;99.90;;;;;;6081563;23;19913;-90
2022/02/15 20:14:21;;;;;;;;;;;8.80;99.90;;;;;;6103668;23;19909;-89
2022/02/15 20:17:47;;;;;;;;;;;8.80;99.90;;;;;;6150912;23;19910;-90
2022/02/15 20:20:09;;;;;;;;;;;8.80;99.90;;;;;;6240659;23;19915;-91
2022/02/15 20:22:34;;;;;;;;;;;8.80;99.90;;;;;;6230048;23;19907;-92
2022/02/15 20:25:03;;;;;;;;;;;8.80;99.90;;;;;;6229301;23;19943;-92
2022/02/15 20:27:32;;;;;;;;;;;8.80;99.90;;;;;;6228482;23;19903;-89
2022/02/15 20:30:02;;;;;;;;;;;8.80;99.90;;;;;;6234622;23;19912;-89
2022/02/15 20:32:43;;;;;;;;;;;8.80;99.90;;;;;;6237728;23;19931;-89
2022/02/15 20:35:14;;;;;;;;;;;8.80;99.90;;;;;;6243408;23;19923;-88
2022/02/15 20:38:40;;;;;;;;;;;8.80;99.90;;;;;;6269668;23;19907;-88
2022/02/15 20:41:13;;;;;;;;;;;8.80;99.90;;;;;;6234183;23;19892;-89
2022/02/15 20:43:44;;;;;;;;;;;8.80;99.90;;;;;;6242737;23;19896;-89
2022/02/15 20:46:14;;;;;;;;;;;8.80;99.90;;;;;;6248734;22;19938;-91
2022/02/15 20:51:32;;;;;;;;;;;8.70;99.90;;;;;;6273538;22;19911;-90
2022/02/15 20:54:12;;;;;;;;;;;;;;;;;;;;;
2022/02/15 20:57:11;;;;;;;;;;;;;;;;;;;;;
2022/02/15 21:00:07;;;;;;;;;;;;;;;;;;;;;
2022/02/15 21:05:29;;;;;;;;;;;8.80;99.90;;;;;;6241910;23;19904;-92
2022/02/15 21:11:12;;;;;;;;;;;8.80;99.90;;;;;;6238862;23;19915;-91
2022/02/15 21:14:01;;;;;;;;;;;8.80;99.90;;;;;;6238184;23;19908;-92
2022/02/15 21:16:48;;;;;;;;;;;8.80;99.90;;;;;;6182799;23;20336;-90
2022/02/15 21:19:25;;;;;;;;;;;8.80;99.90;;;;;;6176026;23;19995;-91
2022/02/15 21:21:51;;;;;;;;;;;8.80;99.90;;;;;;6200220;23;19939;-90
2022/02/15 21:24:42;;;;;;;;;;;8.80;99.90;;;;;;6199245;23;19904;-92
2022/02/15 21:27:40;;;;;;;;;;;8.90;99.90;;;;;;6197085;23;19927;-90
2022/02/15 21:31:01;;;;;;;;;;;;;;;;;;;;;
2022/02/15 21:33:13;;;;;;;;;;;;;;;;;;;;;
2022/02/15 21:35:44;;;;;;;;;;;8.90;99.90;;;;;;6201799;23;19939;-90
2022/02/15 21:38:27;;;;;;;;;;;8.90;99.90;;;;;;6199592;23;19904;-91
2022/02/15 21:40:57;;;;;;;;;;;8.90;99.90;;;;;;6197714;23;20307;-90
2022/02/15 21:43:30;;;;;;;;;;;8.90;99.90;;;;;;6198384;23;19908;-91
2022/02/15 21:45:58;;;;;;;;;;;8.90;99.90;;;;;;6197687;23;19904;-91
2022/02/15 21:48:31;;;;;;;;;;;8.90;99.90;;;;;;6198384;23;19904;-93
2022/02/15 21:51:07;;;;;;;;;;;8.90;99.90;;;;;;6200661;23;19955;-91
2022/02/15 21:54:11;;;;;;;;;;;8.90;99.90;;;;;;6203345;23;19916;-91
2022/02/15 21:56:50;;;;;;;;;;;8.90;99.90;;;;;;6198040;23;19904;-91
2022/02/15 21:59:32;;;;;;;;;;;9.00;99.90;;;;;;6176425;23;19963;-90
2022/02/15 22:02:13;;;;;;;;;;;9.00;99.90;;;;;;6175859;23;19912;-91
2022/02/15 22:04:44;;;;;;;;;;;9.00;99.90;;;;;;6176692;23;19908;-91
2022/02/15 22:07:13;;;;;;;;;;;9.00;99.90;;;;;;6198727;23;19991;-92
2022/02/15 22:09:50;;;;;;;;;;;9.00;99.90;;;;;;6198746;23;19996;-93
2022/02/15 22:12:21;;;;;;;;;;;9.00;99.90;;;;;;6174676;23;19999;-91
2022/02/15 22:14:50;;;;;;;;;;;9.00;99.90;;;;;;6175288;23;19908;-92
2022/02/15 22:17:34;;;;;;;;;;;9.00;99.90;;;;;;6231186;23;19911;-91
2022/02/15 22:20:08;;;;;;;;;;;9.00;99.90;;;;;;6193752;23;19904;-91
2022/02/15 22:22:37;;;;;;;;;;;9.00;99.90;;;;;;6194863;23;19892;-92
2022/02/15 22:25:14;;;;;;;;;;;9.00;99.90;;;;;;6217809;23;19908;-92
2022/02/15 22:30:29;;;;;;;;;;;9.10;99.90;;;;;;6181186;23;19943;-91
2022/02/15 22:33:12;;;;;;;;;;;;;;;;;;;;;
2022/02/15 22:36:06;;;;;;;;;;;;;;;;;;;;;
2022/02/15 22:39:05;;;;;;;;;;;9.10;99.90;;;;;;6200445;23;19928;-92
2022/02/15 22:42:13;;;;;;;;;;;9.10;99.90;;;;;;6188045;23;19930;-92
2022/02/15 22:44:59;;;;;;;;;;;;;;;;;;;;;
2022/02/15 22:47:44;;;;;;;;;;;;;;;;;;;;;
2022/02/15 22:50:12;;;;;;;;;;;9.20;99.90;;;;;;6197422;23;19991;-94
2022/02/15 22:52:47;;;;;;;;;;;9.20;99.90;;;;;;6166471;23;20312;-91
2022/02/15 22:55:26;;;;;;;;;;;9.20;99.90;;;;;;6167688;23;19912;-92
2022/02/15 22:57:57;;;;;;;;;;;9.20;99.90;;;;;;6145128;23;19908;-90
2022/02/15 23:01:09;;;;;;;;;;;9.20;99.90;;;;;;6193700;23;19910;-92
2022/02/15 23:03:48;;;;;;;;;;;;;;;;;;;;;
2022/02/15 23:18:03;;;;;;;;;;;9.20;99.90;;;;;;6190112;23;19911;-91
2022/02/15 23:20:35;;;;;;;;;;;9.30;99.90;;;;;;6169809;23;19995;-91
2022/02/15 23:23:02;;;;;;;;;;;9.30;99.90;;;;;;6169574;23;19970;-92
2022/02/15 23:25:51;;;;;;;;;;;9.30;99.90;;;;;;6194505;23;20294;-93
2022/02/15 23:28:18;;;;;;;;;;;9.30;99.90;;;;;;6194925;23;19986;-90
2022/02/15 23:30:53;;;;;;;;;;;9.30;99.90;;;;;;6196102;23;19912;-92
2022/02/15 23:33:29;;;;;;;;;;;9.30;99.90;;;;;;6171958;23;19912;-93
2022/02/15 23:36:14;;;;;;;;;;;9.30;99.90;;;;;;6184926;23;19908;-93
2022/02/15 23:38:54;;;;;;;;;;;9.30;99.90;;;;;;6188473;23;19934;-91
2022/02/15 23:41:38;;;;;;;;;;;;;;;;;;;;;
2022/02/15 23:44:12;;;;;;;;;;;9.40;99.90;;;;;;6204221;23;19943;-93
2022/02/15 23:46:43;;;;;;;;;;;9.40;99.90;;;;;;6172480;23;19908;-93
2022/02/15 23:49:14;;;;;;;;;;;9.40;99.90;;;;;;6217016;23;19968;-91
2022/02/15 23:51:50;;;;;;;;;;;9.40;99.90;;;;;;6218920;23;19904;-90
2022/02/15 23:54:54;;;;;;;;;;;9.40;99.90;;;;;;6244609;23;19892;-92
2022/02/15 23:57:28;;;;;;;;;;;9.30;99.90;;;;;;6241752;23;19908;-90
2022/02/15 23:59:53;;;;;;;;;;;9.30;99.90;;;;;;6217891;23;19964;-88
